Time;durP1;ratioP1;P1;durP2;ratioP2;P2;SDS_P1;SDS_P2;PMS_P1;PMS_P2;Temp;Humidity;BMP_temperature;BMP_pressure;BME280_temperature;BME280_humidity;BME280_pressure;Samples;Min_cycle;Max_cycle;Signal;HPM_P1;HPM_P2
2022/08/12 00:45:21;;;;;;;;;18.00;17.00;;;;;26.43;48.93;100702.09;146600;692;47010;-68
2022/08/12 00:48:22;;;;;;;;;17.50;16.50;;;;;26.42;49.09;100695.03;146602;601;45912;-68
2022/08/12 00:51:20;;;;;;;;;18.00;16.00;;;;;26.51;48.85;100696.69;146606;569;45020;-67
2022/08/12 00:54:13;;;;;;;;;19.75;18.50;;;;;26.62;48.77;100705.41;146598;680;46913;-67
2022/08/12 00:57:21;;;;;;;;;15.00;15.00;;;;;26.69;48.12;100698.19;146603;569;46010;-67
2022/08/12 01:00:35;;;;;;;;;19.25;19.25;;;;;26.67;48.55;100700.91;146601;581;45912;-68
2022/08/12 01:11:27;;;;;;;;;16.50;16.50;;;;;26.64;48.99;100702.72;146609;679;45020;-67
2022/08/12 01:14:05;;;;;;;;;19.25;18.50;;;;;26.45;49.17;100704.75;146610;576;45913;-69
2022/08/12 01:17:11;;;;;;;;;18.00;14.25;;;;;26.47;49.03;100702.94;146615;588;45021;-69
2022/08/12 01:20:33;;;;;;;;;;;;;;;;;;;;;
2022/08/12 01:23:58;;;;;;;;;18.50;18.50;;;;;26.52;49.28;100711.75;146615;591;45020;-69
2022/08/12 01:27:14;;;;;;;;;22.00;19.25;;;;;26.58;48.76;100714.34;146612;587;46012;-71
2022/08/12 01:30:17;;;;;;;;;21.00;20.50;;;;;26.59;49.77;100721.41;146616;588;46008;-70
2022/08/12 01:33:18;;;;;;;;;18.75;17.00;;;;;26.58;48.73;100727.63;146610;592;45912;-69
2022/08/12 01:36:46;;;;;;;;;;;;;;;;;;;;;
2022/08/12 01:39:51;;;;;;;;;17.00;17.00;;;;;26.67;49.78;100716.84;146610;608;47012;-69
2022/08/12 01:43:18;;;;;;;;;21.25;20.50;;;;;26.73;49.85;100723.88;146634;589;45020;-69
2022/08/12 01:47:02;;;;;;;;;19.50;18.00;;;;;26.71;51.31;100720.34;146623;566;45911;-70
2022/08/12 01:50:35;;;;;;;;;17.50;16.50;;;;;26.71;50.56;100717.69;146632;595;45010;-69
2022/08/12 01:53:35;;;;;;;;;17.00;16.25;;;;;26.77;51.57;100712.28;146631;572;45910;-69
2022/08/12 01:56:34;;;;;;;;;18.00;18.00;;;;;26.84;51.09;100713.03;146631;606;44020;-70
2022/08/12 01:59:59;;;;;;;;;18.50;17.50;;;;;26.91;49.13;100714.69;146624;591;48913;-70
2022/08/12 02:11:29;;;;;;;;;20.00;17.75;;;;;26.66;48.61;100624.66;146606;569;45020;-70
2022/08/12 02:15:12;;;;;;;;;20.50;19.75;;;;;26.32;48.56;100559.59;146602;606;45914;-69
2022/08/12 02:18:49;;;;;;;;;15.00;14.25;;;;;27.22;49.42;100708.88;146608;611;46014;-70
2022/08/12 02:22:04;;;;;;;;;19.25;18.50;;;;;27.15;49.57;100706.34;146602;634;45913;-70
2022/08/12 02:25:21;;;;;;;;;15.50;13.00;;;;;27.08;49.57;100711.78;146604;605;45022;-72
2022/08/12 02:28:24;;;;;;;;;15.00;14.25;;;;;26.92;49.33;100698.72;146601;583;46013;-72
2022/08/12 02:31:18;;;;;;;;;21.75;19.50;;;;;26.79;49.04;100698.94;146606;580;45020;-70
2022/08/12 02:34:23;;;;;;;;;15.25;15.25;;;;;26.70;48.62;100700.84;146600;577;46012;-69
2022/08/12 02:37:17;;;;;;;;;17.75;17.25;;;;;26.65;49.42;100701.81;146606;566;45021;-70
2022/08/12 02:40:27;;;;;;;;;17.00;17.00;;;;;26.62;48.89;100700.06;146602;577;45912;-69
2022/08/12 02:43:55;;;;;;;;;17.50;17.25;;;;;25.69;48.22;100553.41;146605;654;45044;-71
2022/08/12 02:47:05;;;;;;;;;20.25;20.25;;;;;25.71;48.35;100567.56;146601;615;46016;-71
2022/08/12 02:50:19;;;;;;;;;19.75;18.00;;;;;26.57;49.18;100723.19;146605;584;45020;-71
2022/08/12 02:53:19;;;;;;;;;18.25;16.50;;;;;26.55;49.20;100732.13;146600;598;46012;-73
2022/08/12 02:56:22;;;;;;;;;18.50;18.50;;;;;26.52;48.52;100732.16;146601;577;46010;-70
2022/08/12 02:59:18;;;;;;;;;19.75;17.50;;;;;26.53;49.30;100732.13;146602;569;45913;-70
2022/08/12 03:02:23;;;;;;;;;21.00;19.00;;;;;26.51;48.39;100733.91;146604;646;45020;-69
2022/08/12 03:05:26;;;;;;;;;21.00;20.50;;;;;26.48;48.71;100747.25;146631;611;45912;-70
2022/08/12 03:08:42;;;;;;;;;18.25;18.25;;;;;25.48;48.60;100580.22;146629;572;44021;-70
2022/08/12 03:12:07;;;;;;;;;19.75;18.75;;;;;25.40;48.65;100592.75;146625;658;46012;-70
2022/08/12 03:15:21;;;;;;;;;19.25;18.50;;;;;26.26;50.54;100762.56;146634;571;45010;-71
2022/08/12 03:18:35;;;;;;;;;20.25;18.00;;;;;25.23;51.16;100595.56;146628;700;45916;-70
2022/08/12 03:21:40;;;;;;;;;18.25;18.00;;;;;26.20;52.38;100752.94;146635;594;44031;-72
2022/08/12 03:24:41;;;;;;;;;13.00;13.00;;;;;26.25;51.55;100753.72;146628;675;45913;-72
2022/08/12 03:27:50;;;;;;;;;12.25;12.25;;;;;26.33;49.27;100736.81;146630;678;44914;-72
2022/08/12 03:31:14;;;;;;;;;17.00;16.00;;;;;25.44;54.15;100578.53;146632;578;45012;-71
2022/08/12 03:34:22;;;;;;;;;19.00;18.25;;;;;26.44;52.57;100740.19;146632;592;45010;-69
2022/08/12 03:37:18;;;;;;;;;16.75;16.25;;;;;26.57;54.48;100746.25;146629;584;45000;-71
2022/08/12 04:00:38;;;;;;;;;16.25;15.75;;;;;26.13;50.41;100610.37;146632;564;45010;-72
2022/08/12 04:03:55;;;;;;;;;16.50;16.50;;;;;27.18;49.48;100771.94;146618;573;45913;-71
2022/08/12 04:06:50;;;;;;;;;12.75;12.75;;;;;27.26;49.44;100774.47;146610;595;47010;-71
2022/08/12 04:09:50;;;;;;;;;17.00;15.00;;;;;27.23;49.15;100763.88;146607;565;45914;-72
2022/08/12 04:13:18;;;;;;;;;17.00;16.50;;;;;27.21;49.81;100771.03;146613;573;46015;-71
2022/08/12 04:16:22;;;;;;;;;13.75;13.75;;;;;27.27;50.06;100771.81;146609;605;46012;-68
2022/08/12 04:20:02;;;;;;;;;15.00;13.75;;;;;26.41;48.77;100624.13;146614;669;45022;-68
2022/08/12 04:23:05;;;;;;;;;16.00;14.75;;;;;27.39;49.08;100792.03;146610;647;45914;-69
2022/08/12 04:25:58;;;;;;;;;13.00;13.00;;;;;27.44;48.67;100792.81;146606;563;46915;-67
2022/08/12 04:29:08;;;;;;;;;15.50;15.00;;;;;27.50;48.21;100806.00;146610;609;45914;-68
2022/08/12 04:32:06;;;;;;;;;17.25;16.00;;;;;27.57;49.40;100804.13;146612;681;46010;-69
2022/08/12 04:35:05;;;;;;;;;14.50;14.50;;;;;27.58;49.09;100797.91;146610;605;46014;-68
2022/08/12 04:38:00;;;;;;;;;17.00;17.00;;;;;27.59;48.68;100800.53;146615;596;46010;-68
2022/08/12 04:41:17;;;;;;;;;16.25;15.25;;;;;26.64;48.12;100645.09;146612;593;46012;-68
2022/08/12 04:44:14;;;;;;;;;16.00;14.50;;;;;27.54;49.32;100793.53;146613;647;45021;-69
2022/08/12 04:47:12;;;;;;;;;15.50;15.00;;;;;27.56;49.33;100802.38;146610;617;45914;-70
2022/08/12 04:50:16;;;;;;;;;16.75;14.75;;;;;27.56;49.16;100795.25;146610;613;46915;-67
2022/08/12 04:53:21;;;;;;;;;16.00;15.00;;;;;27.56;49.26;100800.59;146612;570;45913;-73
2022/08/12 04:56:23;;;;;;;;;16.00;15.25;;;;;27.56;49.75;100805.03;146616;563;45020;-71
2022/08/12 04:59:28;;;;;;;;;17.00;16.00;;;;;27.54;50.04;100802.41;146611;609;45915;-71
2022/08/12 05:02:25;;;;;;;;;15.25;13.50;;;;;27.58;49.55;100806.78;146614;698;45020;-71
2022/08/12 05:05:27;;;;;;;;;18.00;16.50;;;;;27.67;49.93;100787.09;146627;569;45914;-71
2022/08/12 05:08:30;;;;;;;;;18.75;17.75;;;;;27.78;49.67;100787.78;146631;582;44020;-70
2022/08/12 05:11:39;;;;;;;;;17.50;16.00;;;;;27.01;48.26;100627.59;146629;582;44914;-73
2022/08/12 05:14:39;;;;;;;;;15.50;13.00;;;;;28.04;49.73;100781.09;146631;631;44021;-70
2022/08/12 05:17:43;;;;;;;;;19.75;16.75;;;;;28.18;49.49;100784.34;146628;604;45914;-70
2022/08/12 05:20:46;;;;;;;;;16.50;15.75;;;;;28.30;49.01;100788.56;146630;611;45011;-72
2022/08/12 05:23:46;;;;;;;;;16.50;15.25;;;;;28.44;49.48;100794.53;146629;594;44914;-71
2022/08/12 05:26:39;;;;;;;;;20.00;18.00;;;;;28.56;48.78;100798.69;146632;633;44020;-72
2022/08/12 05:29:38;;;;;;;;;15.75;14.50;;;;;28.64;49.51;100801.19;146623;642;47915;-71
2022/08/12 05:32:37;;;;;;;;;13.75;13.75;;;;;28.67;49.03;100795.78;146630;628;45010;-72
2022/08/12 05:35:44;;;;;;;;;20.25;18.75;;;;;28.72;49.39;100791.22;146630;644;45012;-71
2022/08/12 05:38:55;;;;;;;;;21.75;19.25;;;;;28.72;49.79;100794.78;146632;657;44914;-70
2022/08/12 05:42:04;;;;;;;;;19.25;18.25;;;;;27.77;48.40;100636.84;146632;615;44914;-69
2022/08/12 05:44:56;;;;;;;;;17.25;16.00;;;;;28.71;49.29;100800.13;146631;630;44020;-72
2022/08/12 05:47:57;;;;;;;;;19.00;18.50;;;;;28.71;48.83;100800.13;146627;598;45914;-71
2022/08/12 05:50:53;;;;;;;;;16.50;15.00;;;;;28.78;48.85;100801.75;146631;577;45010;-70
2022/08/12 05:54:09;;;;;;;;;16.75;16.25;;;;;29.00;48.32;100802.13;146629;656;44914;-70
2022/08/12 05:57:03;;;;;;;;;19.50;17.25;;;;;29.40;48.55;100799.37;146630;587;45016;-70
2022/08/12 05:59:56;;;;;;;;;17.50;16.75;;;;;29.69;47.28;100801.34;146629;584;45914;-69
2022/08/12 06:03:07;;;;;;;;;15.75;13.75;;;;;29.81;45.81;100805.47;146630;582;44914;-71
2022/08/12 06:06:18;;;;;;;;;18.75;18.00;;;;;29.88;45.78;100801.72;146602;613;45915;-68
2022/08/12 06:09:14;;;;;;;;;17.25;14.50;;;;;30.07;45.36;100803.91;146606;589;45020;-69
2022/08/12 06:12:22;;;;;;;;;19.50;16.75;;;;;30.22;44.76;100797.25;146600;583;46010;-70
2022/08/12 06:15:16;;;;;;;;;24.75;22.25;;;;;30.26;44.20;100802.47;146604;572;45047;-71
2022/08/12 06:18:18;;;;;;;;;19.00;18.25;;;;;30.23;44.57;100805.25;146602;675;45914;-70
2022/08/12 06:21:22;;;;;;;;;20.75;19.75;;;;;30.19;44.09;100797.31;146602;646;46010;-70
2022/08/12 06:24:29;;;;;;;;;;;;;;;;;;;;;
2022/08/12 06:27:34;;;;;;;;;;;;;;;;;;;;;
2022/08/12 06:30:35;;;;;;;;;15.25;15.25;;;;;30.01;44.93;100806.75;146602;609;45911;-69
2022/08/12 06:33:33;;;;;;;;;21.25;19.25;;;;;29.96;45.52;100808.66;146604;624;45021;-70
2022/08/12 06:36:32;;;;;;;;;26.25;23.50;;;;;29.92;45.53;100806.06;146603;581;45911;-70
2022/08/12 06:39:26;;;;;;;;;23.00;22.00;;;;;29.99;44.94;100804.09;146605;643;45020;-70
2022/08/12 06:45:53;;;;;;;;;18.00;18.00;;;;;30.42;44.26;100816.28;146607;599;45020;-70
2022/08/12 06:48:57;;;;;;;;;21.00;21.00;;;;;30.54;44.19;100818.59;146600;574;46012;-69
2022/08/12 06:51:54;;;;;;;;;17.00;16.50;;;;;30.69;44.25;100822.59;146604;588;45021;-71
2022/08/12 06:54:52;;;;;;;;;11.00;10.25;;;;;30.78;43.41;100817.00;146601;579;46012;-72
2022/08/12 06:58:06;;;;;;;;;18.50;18.50;;;;;30.79;43.35;100828.59;146604;570;46010;-75
2022/08/12 07:01:13;;;;;;;;;16.00;15.50;;;;;29.92;43.84;100668.84;146602;621;45913;-75
2022/08/12 07:04:07;;;;;;;;;14.50;14.50;;;;;30.90;43.75;100813.03;146604;586;45021;-75
2022/08/12 07:07:04;;;;;;;;;19.50;16.75;;;;;31.04;43.44;100809.94;146600;607;46012;-74
2022/08/12 07:10:27;;;;;;;;;19.00;16.75;;;;;31.19;43.56;100806.78;146605;585;46010;-74
2022/08/12 07:13:19;;;;;;;;;18.50;17.50;;;;;31.43;42.73;100820.28;146602;600;45912;-74
2022/08/12 07:16:17;;;;;;;;;18.50;17.25;;;;;31.55;42.79;100825.22;146608;580;45020;-73
2022/08/12 07:19:09;;;;;;;;;17.00;16.25;;;;;31.70;41.50;100822.03;146603;669;45912;-74
2022/08/12 07:22:08;;;;;;;;;20.25;18.00;;;;;31.79;41.78;100825.34;146604;591;46010;-75
2022/08/12 07:28:32;;;;;;;;;18.25;18.00;;;;;31.82;41.71;100814.50;146605;667;46010;-75
2022/08/12 07:31:29;;;;;;;;;18.50;17.00;;;;;31.82;41.63;100815.38;146604;569;45912;-75
2022/08/12 07:34:26;;;;;;;;;17.00;17.00;;;;;31.74;41.46;100815.63;146604;627;45021;-75
2022/08/12 07:37:30;;;;;;;;;15.25;15.25;;;;;31.27;41.94;100737.72;146604;625;46012;-76
2022/08/12 07:40:32;;;;;;;;;16.25;15.75;;;;;31.80;41.17;100817.22;146606;572;45021;-76
2022/08/12 07:43:38;;;;;;;;;16.25;15.50;;;;;31.77;41.44;100816.44;146603;603;45911;-77
2022/08/12 07:46:35;;;;;;;;;15.00;14.00;;;;;31.80;41.34;100813.66;146605;570;45022;-75
2022/08/12 07:49:39;;;;;;;;;;;;;;;;;;;;;
2022/08/12 07:53:04;;;;;;;;;12.75;12.75;;;;;31.90;41.25;100807.06;146605;577;45022;-76
2022/08/12 07:55:56;;;;;;;;;19.00;15.75;;;;;31.95;40.93;100808.66;146602;569;45910;-74
2022/08/12 07:58:57;;;;;;;;;17.00;15.75;;;;;31.99;41.10;100809.41;146607;567;45020;-75
2022/08/12 08:01:59;;;;;;;;;14.75;14.75;;;;;31.97;40.84;100813.97;146602;581;45912;-77
2022/08/12 08:05:20;;;;;;;;;10.50;10.00;;;;;31.92;41.04;100814.13;146628;651;45010;-77
2022/08/12 08:08:24;;;;;;;;;12.00;11.25;;;;;31.84;41.63;100812.63;146630;601;45914;-75
2022/08/12 08:14:35;;;;;;;;;15.00;13.75;;;;;31.83;41.12;100817.09;146631;606;44912;-76
2022/08/12 08:17:36;;;;;;;;;16.25;15.00;;;;;31.97;40.47;100820.22;146632;666;45010;-76
2022/08/12 08:20:37;;;;;;;;;13.00;12.00;;;;;32.06;40.17;100816.34;146631;613;45914;-77
2022/08/12 08:26:54;;;;;;;;;14.00;12.75;;;;;32.09;40.98;100808.19;146629;598;45912;-76
2022/08/12 08:29:54;;;;;;;;;13.00;13.00;;;;;32.18;40.02;100813.19;146631;574;44020;-77
2022/08/12 08:32:51;;;;;;;;;13.50;13.50;;;;;32.28;40.90;100813.72;146632;588;45914;-77
2022/08/12 08:36:02;;;;;;;;;;;;;;;;;;;;;
2022/08/12 08:39:20;;;;;;;;;15.75;15.00;;;;;32.31;39.66;100807.38;146629;602;45912;-77
2022/08/12 08:45:28;;;;;;;;;15.25;12.25;;;;;32.46;41.09;100809.47;146631;609;44912;-77
2022/08/12 08:48:31;;;;;;;;;;;;;;;;;;;;;
2022/08/12 08:51:35;;;;;;;;;11.00;10.50;;;;;32.50;40.78;100819.19;146630;630;44910;-76
2022/08/12 08:54:40;;;;;;;;;10.75;10.25;;;;;32.62;41.20;100810.66;146630;578;44021;-76
2022/08/12 08:57:35;;;;;;;;;11.75;10.50;;;;;32.79;40.03;100803.75;146630;563;45914;-81
2022/08/12 09:00:40;;;;;;;;;;;;;;;;;;;;;
2022/08/12 09:03:52;;;;;;;;;11.50;10.50;;;;;32.92;40.88;100809.50;146619;580;46012;-73
2022/08/12 09:06:46;;;;;;;;;10.75;10.75;;;;;32.81;40.30;100807.25;146604;654;45020;-74
2022/08/12 09:09:51;;;;;;;;;12.75;11.50;;;;;32.74;40.74;100798.53;146601;711;46013;-76
2022/08/12 09:15:58;;;;;;;;;9.25;9.25;;;;;32.57;41.57;100803.72;146603;565;45912;-73
2022/08/12 09:18:52;;;;;;;;;7.50;7.50;;;;;32.38;41.83;100798.16;146606;697;45048;-78
2022/08/12 09:21:59;;;;;;;;;8.50;7.75;;;;;32.36;41.90;100792.81;146602;596;45914;-76
2022/08/12 09:24:57;;;;;;;;;8.75;8.75;;;;;32.36;42.63;100790.16;146603;582;46014;-76
2022/08/12 09:27:58;;;;;;;;;9.25;9.25;;;;;32.29;42.36;100788.63;146602;565;45914;-78
2022/08/12 09:30:57;;;;;;;;;9.00;8.50;;;;;32.20;42.11;100794.34;146605;580;46010;-77
2022/08/12 09:33:51;;;;;;;;;9.50;9.00;;;;;32.13;43.21;100792.84;146603;633;45915;-78
2022/08/12 09:36:47;;;;;;;;;9.25;8.50;;;;;32.16;42.61;100787.34;146604;569;45028;-73
2022/08/12 09:39:53;;;;;;;;;8.50;8.50;;;;;32.22;42.80;100780.91;146602;581;45914;-76
2022/08/12 09:46:16;;;;;;;;;12.00;11.25;;;;;32.42;41.84;100783.69;146599;571;45912;-75
2022/08/12 09:49:35;;;;;;;;;9.25;9.25;;;;;32.44;41.36;100779.16;146605;577;46014;-78
2022/08/12 09:52:31;;;;;;;;;11.50;11.50;;;;;32.52;42.16;100790.47;146601;578;46012;-76
2022/08/12 09:55:34;;;;;;;;;11.75;11.75;;;;;32.55;42.15;100782.28;146604;591;46010;-77
2022/08/12 09:58:33;;;;;;;;;10.00;10.00;;;;;32.60;41.87;100774.94;146602;579;45914;-74
2022/08/12 10:01:42;;;;;;;;;12.25;11.75;;;;;32.50;40.99;100770.00;146602;599;46920;-77
2022/08/12 10:04:41;;;;;;;;;12.25;11.75;;;;;32.47;40.74;100778.19;146602;564;45912;-76
2022/08/12 10:07:36;;;;;;;;;12.25;11.25;;;;;32.23;39.65;100783.50;146605;572;45020;-76
2022/08/12 10:10:28;;;;;;;;;13.00;13.00;;;;;32.28;39.97;100789.59;146600;616;46012;-80
2022/08/12 10:13:40;;;;;;;;;15.00;12.75;;;;;32.43;40.16;100780.97;146607;583;45020;-77
2022/08/12 10:16:42;;;;;;;;;11.25;10.25;;;;;32.55;38.89;100784.97;146601;594;45914;-76
2022/08/12 10:19:44;;;;;;;;;14.25;13.25;;;;;32.42;39.35;100775.63;146605;563;46014;-75
2022/08/12 10:22:47;;;;;;;;;10.75;10.50;;;;;32.38;39.05;100776.69;146602;564;45914;-77
2022/08/12 10:32:22;;;;;;;;;14.75;13.75;;;;;32.75;38.59;100761.84;146605;625;46020;-77
2022/08/12 10:35:22;;;;;;;;;15.00;14.00;;;;;32.71;39.18;100758.41;146601;691;45913;-75
2022/08/12 10:38:17;;;;;;;;;11.00;11.00;;;;;32.77;39.56;100751.91;146602;564;47015;-78
2022/08/12 10:44:22;;;;;;;;;10.25;9.50;;;;;32.78;39.46;100759.03;146607;637;45020;-75
2022/08/12 10:47:30;;;;;;;;;;;;;;;;;;;;;
2022/08/12 10:50:37;;;;;;;;;11.00;11.00;;;;;32.79;39.78;100750.03;146604;613;47022;-76
2022/08/12 10:53:47;;;;;;;;;13.75;12.50;;;;;32.92;37.88;100750.41;146602;601;45915;-75
2022/08/12 10:56:42;;;;;;;;;11.00;10.00;;;;;32.95;38.44;100739.53;146607;576;45020;-76
2022/08/12 10:59:40;;;;;;;;;13.50;12.00;;;;;32.98;38.97;100732.25;146602;569;45914;-78
2022/08/12 11:02:36;;;;;;;;;11.25;11.25;;;;;33.03;37.80;100732.94;146605;585;46010;-77
2022/08/12 11:05:33;;;;;;;;;12.75;12.75;;;;;33.05;38.08;100717.63;146626;590;45914;-77
2022/08/12 11:08:41;;;;;;;;;;;;;;;;;;;;;
2022/08/12 11:11:48;;;;;;;;;14.00;14.00;;;;;32.18;38.20;100592.31;146627;594;45912;-78
2022/08/12 11:14:41;;;;;;;;;10.50;10.50;;;;;33.04;37.96;100731.13;146629;638;45021;-77
2022/08/12 11:17:51;;;;;;;;;10.25;9.50;;;;;33.05;38.57;100725.69;146628;696;45914;-78
2022/08/12 11:20:58;;;;;;;;;8.25;7.75;;;;;32.28;36.13;100576.75;146631;571;44020;-77
2022/08/12 11:24:01;;;;;;;;;9.00;9.00;;;;;33.14;36.79;100718.19;146630;663;45012;-77
2022/08/12 11:27:08;;;;;;;;;5.75;5.75;;;;;33.25;36.80;100708.72;146632;564;44020;-76
2022/08/12 11:30:06;;;;;;;;;5.75;5.75;;;;;33.31;35.23;100704.91;146628;569;45939;-76
2022/08/12 11:33:14;;;;;;;;;7.50;7.50;;;;;33.29;37.60;100694.22;146630;704;44021;-78
2022/08/12 11:36:15;;;;;;;;;6.00;5.75;;;;;33.16;36.38;100693.00;146629;669;45012;-77
2022/08/12 11:39:20;;;;;;;;;7.00;7.00;;;;;33.13;37.51;100689.56;146629;569;44867;-75
2022/08/12 11:42:13;;;;;;;;;10.50;8.75;;;;;33.17;36.74;100686.69;146631;696;45913;-77
2022/08/12 11:45:19;;;;;;;;;8.75;8.25;;;;;33.25;36.91;100686.38;146632;573;45014;-75
2022/08/12 11:48:17;;;;;;;;;7.75;7.75;;;;;33.31;38.11;100686.09;146629;611;46913;-76
2022/08/12 11:51:29;;;;;;;;;;;;;;;;;;;;;
2022/08/12 11:54:33;;;;;;;;;9.25;9.25;;;;;33.25;38.14;100672.94;146627;594;45014;-76
2022/08/12 11:57:33;;;;;;;;;8.00;8.00;;;;;33.26;37.08;100670.16;146629;651;44916;-75
2022/08/12 12:00:29;;;;;;;;;7.00;7.00;;;;;33.29;38.32;100666.47;146631;665;45013;-77
2022/08/12 12:03:23;;;;;;;;;9.25;9.25;;;;;33.21;37.53;100664.13;146628;565;45020;-77
2022/08/12 12:06:19;;;;;;;;;7.75;7.75;;;;;33.15;37.80;100664.41;146601;625;46015;-75
2022/08/12 12:09:17;;;;;;;;;9.00;9.00;;;;;33.10;38.13;100664.56;146605;564;45048;-76
2022/08/12 12:12:21;;;;;;;;;8.25;8.25;;;;;33.06;37.54;100662.97;146602;626;45916;-76
2022/08/12 12:15:15;;;;;;;;;10.50;10.50;;;;;32.84;37.65;100625.41;146607;570;45021;-77
2022/08/12 12:18:30;;;;;;;;;8.00;7.25;;;;;32.90;37.86;100643.06;146603;685;45914;-76
2022/08/12 12:21:24;;;;;;;;;9.25;8.00;;;;;32.85;38.07;100650.44;146606;710;46020;-78
2022/08/12 12:24:18;;;;;;;;;9.25;9.25;;;;;32.80;37.20;100639.88;146603;607;45915;-76
2022/08/12 12:27:13;;;;;;;;;8.25;8.25;;;;;32.77;37.29;100640.00;146606;655;45020;-77
2022/08/12 12:30:21;;;;;;;;;4.75;4.75;;;;;31.93;38.28;100493.22;146600;599;46012;-76
2022/08/12 12:33:19;;;;;;;;;7.50;6.75;;;;;32.73;37.59;100627.66;146605;712;46010;-74
2022/08/12 12:36:13;;;;;;;;;6.00;6.00;;;;;32.72;36.20;100633.97;146601;647;46015;-77
2022/08/12 12:39:06;;;;;;;;;8.50;6.50;;;;;32.72;36.70;100623.22;146607;588;45020;-76
2022/08/12 12:42:02;;;;;;;;;7.00;7.00;;;;;32.68;36.28;100610.88;146600;571;46012;-75
2022/08/12 12:45:16;;;;;;;;;9.00;9.00;;;;;32.69;36.12;100609.94;146598;574;48010;-76
2022/08/12 12:48:23;;;;;;;;;7.00;7.00;;;;;32.56;35.66;100606.91;146604;577;45912;-74
2022/08/12 12:51:24;;;;;;;;;9.50;8.00;;;;;32.40;36.36;100606.63;146607;657;45021;-75
2022/08/12 12:54:29;;;;;;;;;7.00;6.50;;;;;32.21;36.74;100594.88;146603;613;45912;-76
2022/08/12 12:57:43;;;;;;;;;;;;;;;;;;;;;
2022/08/12 13:00:39;;;;;;;;;6.25;6.00;;;;;32.13;37.36;100599.69;146600;565;46012;-77
2022/08/12 13:03:36;;;;;;;;;7.00;7.00;;;;;32.13;37.66;100591.66;146605;580;46010;-77
2022/08/12 13:06:30;;;;;;;;;6.75;6.75;;;;;32.20;37.00;100594.00;146601;596;46014;-74
2022/08/12 13:09:29;;;;;;;;;6.00;6.00;;;;;32.29;37.42;100600.81;146604;563;45020;-76
2022/08/12 13:12:29;;;;;;;;;7.50;6.25;;;;;32.38;37.94;100589.72;146598;704;46012;-76
2022/08/12 13:15:25;;;;;;;;;8.00;8.00;;;;;32.41;36.29;100584.22;146607;651;45021;-80
2022/08/12 13:18:19;;;;;;;;;7.00;7.00;;;;;32.46;37.33;100577.81;146602;566;45912;-80
2022/08/12 13:21:26;;;;;;;;;6.25;6.25;;;;;32.48;38.44;100609.00;146604;652;46014;-81
2022/08/12 13:24:19;;;;;;;;;9.25;9.25;;;;;32.46;37.93;100591.22;146602;679;45902;-81
2022/08/12 13:27:19;;;;;;;;;6.00;6.00;;;;;32.45;37.78;100584.12;146606;593;45030;-79
2022/08/12 13:30:29;;;;;;;;;8.25;7.00;;;;;32.49;37.54;100580.34;146600;702;47017;-81
2022/08/12 13:33:28;;;;;;;;;6.00;6.00;;;;;32.49;37.35;100586.59;146606;584;46010;-81
2022/08/12 13:36:26;;;;;;;;;8.75;7.25;;;;;32.43;36.91;100579.69;146601;569;46012;-78
2022/08/12 13:39:25;;;;;;;;;10.00;8.00;;;;;32.33;37.63;100580.97;146602;601;46010;-78
2022/08/12 13:42:26;;;;;;;;;7.50;7.00;;;;;32.25;38.14;100576.88;146602;677;45861;-77
2022/08/12 13:45:23;;;;;;;;;10.75;7.00;;;;;32.24;37.74;100591.19;146606;596;45036;-79
2022/08/12 13:48:19;;;;;;;;;8.75;8.50;;;;;32.27;37.47;100589.25;146600;573;48012;-78
2022/08/12 13:51:11;;;;;;;;;9.00;7.25;;;;;32.28;37.67;100582.13;146607;581;45037;-78
2022/08/12 13:54:09;;;;;;;;;7.00;7.00;;;;;32.20;37.42;100585.09;146599;573;47913;-79
2022/08/12 13:57:13;;;;;;;;;7.50;6.75;;;;;32.15;37.38;100595.12;146605;579;46010;-81
2022/08/12 14:00:10;;;;;;;;;8.00;7.75;;;;;32.09;37.88;100576.59;146602;608;45913;-79
2022/08/12 14:03:15;;;;;;;;;7.25;7.00;;;;;32.12;38.56;100572.00;146607;591;45020;-79
2022/08/12 14:06:19;;;;;;;;;8.00;8.00;;;;;32.19;38.29;100578.00;146598;563;48032;-79
2022/08/12 14:09:14;;;;;;;;;7.25;7.25;;;;;32.27;37.88;100569.63;146604;629;45020;-79
2022/08/12 14:12:17;;;;;;;;;7.75;7.00;;;;;32.34;38.30;100573.81;146603;579;45914;-78
2022/08/12 14:15:17;;;;;;;;;8.75;8.75;;;;;32.34;37.91;100571.12;146606;583;45020;-82
2022/08/12 14:18:34;;;;;;;;;9.25;9.25;;;;;32.29;39.22;100573.13;146598;685;47914;-81
2022/08/12 14:21:34;;;;;;;;;12.50;9.25;;;;;32.23;38.77;100578.72;146607;579;45021;-81
2022/08/12 14:24:40;;;;;;;;;12.00;10.50;;;;;32.14;39.53;100575.47;146602;680;45914;-78
2022/08/12 14:27:33;;;;;;;;;10.00;10.00;;;;;32.07;39.36;100586.53;146605;574;45021;-80
2022/08/12 14:30:55;;;;;;;;;12.50;11.50;;;;;32.00;39.53;100582.34;146601;563;46012;-80
2022/08/12 14:33:59;;;;;;;;;10.75;10.00;;;;;31.09;39.23;100445.56;146605;699;45021;-81
2022/08/12 14:36:54;;;;;;;;;9.00;9.00;;;;;31.87;39.49;100581.91;146603;607;45914;-73
2022/08/12 14:40:03;;;;;;;;;8.75;8.25;;;;;31.02;39.27;100434.22;146605;575;45020;-69
2022/08/12 14:42:56;;;;;;;;;8.25;8.25;;;;;31.85;39.21;100578.44;146601;564;46012;-69
2022/08/12 14:45:55;;;;;;;;;8.75;8.50;;;;;31.84;39.23;100582.03;146606;636;46010;-71
2022/08/12 14:48:57;;;;;;;;;10.25;8.75;;;;;31.82;39.26;100576.75;146603;564;45914;-69
2022/08/12 14:51:51;;;;;;;;;12.25;9.75;;;;;31.81;40.88;100580.38;146606;708;45020;-69
2022/08/12 14:54:59;;;;;;;;;9.75;8.00;;;;;31.77;40.11;100575.16;146600;644;45914;-70
2022/08/12 14:58:04;;;;;;;;;9.75;8.50;;;;;31.73;40.28;100580.66;146603;564;46010;-70
2022/08/12 15:04:28;;;;;;;;;9.75;9.75;;;;;31.59;41.55;100580.31;146611;571;46010;-72
2022/08/12 15:07:31;;;;;;;;;11.00;9.25;;;;;31.48;42.22;100580.72;146610;684;45914;-72
2022/08/12 15:10:24;;;;;;;;;10.50;10.00;;;;;31.43;43.05;100588.03;146617;615;45020;-72
2022/08/12 15:13:32;;;;;;;;;9.75;9.75;;;;;31.31;43.17;100588.50;146613;571;46014;-76
2022/08/12 15:16:27;;;;;;;;;10.75;10.50;;;;;31.19;44.00;100579.09;146617;587;45041;-76
2022/08/12 15:19:33;;;;;;;;;;;;;;;;;;;;;
2022/08/12 15:22:29;;;;;;;;;7.25;5.75;;;;;31.05;42.88;100568.00;146614;598;45022;-72
2022/08/12 15:25:24;;;;;;;;;11.75;10.00;;;;;31.03;44.54;100569.88;146609;637;46013;-70
2022/08/12 15:28:37;;;;;;;;;12.50;12.00;;;;;30.98;43.38;100561.12;146617;599;46010;-73
2022/08/12 15:31:32;;;;;;;;;11.50;9.50;;;;;30.95;44.50;100555.87;146607;631;45915;-71
2022/08/12 15:34:27;;;;;;;;;9.25;7.75;;;;;30.94;44.82;100554.12;146615;564;45914;-72
2022/08/12 15:37:47;;;;;;;;;8.75;8.75;;;;;30.82;46.14;100560.78;146613;708;45914;-71
2022/08/12 15:40:45;;;;;;;;;9.00;9.00;;;;;30.67;45.82;100567.50;146616;605;45021;-71
2022/08/12 15:43:44;;;;;;;;;10.75;10.25;;;;;30.53;45.76;100567.09;146614;668;45915;-71
2022/08/12 15:46:39;;;;;;;;;13.50;11.00;;;;;30.42;46.38;100578.19;146607;591;46021;-71
2022/08/12 15:49:34;;;;;;;;;9.50;8.75;;;;;30.27;46.88;100571.53;146610;602;46012;-69
2022/08/12 15:52:47;;;;;;;;;8.25;7.00;;;;;30.03;48.92;100583.88;146618;563;45020;-72
2022/08/12 15:55:40;;;;;;;;;11.50;10.50;;;;;29.87;49.21;100582.56;146609;564;46015;-70
2022/08/12 15:58:49;;;;;;;;;11.25;10.50;;;;;29.73;46.62;100579.47;146613;593;46010;-72
2022/08/12 16:01:57;;;;;;;;;11.50;10.75;;;;;29.62;48.11;100582.44;146609;635;45914;-71
2022/08/12 16:04:50;;;;;;;;;10.75;10.75;;;;;29.41;50.50;100595.50;146609;571;45047;-72
2022/08/12 16:07:49;;;;;;;;;11.25;10.75;;;;;29.33;48.63;100583.25;146599;563;46014;-73
2022/08/12 16:10:51;;;;;;;;;11.75;11.50;;;;;29.31;49.28;100587.75;146603;611;45021;-72
2022/08/12 16:13:51;;;;;;;;;11.00;11.00;;;;;29.30;49.49;100586.91;146601;563;46012;-72
2022/08/12 16:16:43;;;;;;;;;11.50;11.50;;;;;29.32;48.69;100600.22;146606;611;45020;-69